Time;durP1;ratioP1;P1;durP2;ratioP2;P2;SDS_P1;SDS_P2;PMS_P1;PMS_P2;Temp;Humidity;BMP_temperature;BMP_pressure;BME280_temperature;BME280_humidity;BME280_pressure;Samples;Min_cycle;Max_cycle;Signal;HPM_P1;HPM_P2
2023/04/27 00:01:58;;;;;;;10.25;5.03;;;;;;;5.15;100.00;102053.13;5052653;28;20033;-41
2023/04/27 00:04:24;;;;;;;8.77;4.85;;;;;;;5.11;100.00;102051.66;5050862;28;20025;-42
2023/04/27 00:06:50;;;;;;;9.18;5.90;;;;;;;5.09;100.00;102048.25;5053422;28;20112;-42
2023/04/27 00:09:15;;;;;;;6.93;4.78;;;;;;;5.12;100.00;102041.84;5050501;28;20035;-42
2023/04/27 00:11:41;;;;;;;6.25;5.38;;;;;;;5.12;100.00;102039.16;5052061;28;20017;-44
2023/04/27 00:14:06;;;;;;;8.13;5.32;;;;;;;5.06;100.00;102036.00;5054749;28;20044;-41
2023/04/27 00:16:31;;;;;;;9.38;5.28;;;;;;;5.02;100.00;102037.19;5055400;28;20035;-42
2023/04/27 00:18:57;;;;;;;8.18;4.90;;;;;;;4.99;100.00;102042.75;5067433;28;20217;-42
2023/04/27 00:21:22;;;;;;;11.27;5.18;;;;;;;4.96;100.00;102040.31;5065930;28;20753;-42
2023/04/27 00:23:47;;;;;;;7.97;4.80;;;;;;;4.91;100.00;102038.97;5066058;28;20028;-42
2023/04/27 00:26:13;;;;;;;8.60;5.10;;;;;;;4.82;100.00;102041.38;5062162;28;20066;-41
2023/04/27 00:28:38;;;;;;;10.73;5.20;;;;;;;4.79;100.00;102046.94;5068875;28;20044;-43
2023/04/27 00:31:05;;;;;;;7.93;4.80;;;;;;;4.77;100.00;102045.34;5067021;28;20066;-41
2023/04/27 00:33:30;;;;;;;12.88;5.32;;;;;;;4.72;100.00;102044.84;5070150;28;20044;-40
2023/04/27 00:36:00;;;;;;;12.02;5.65;;;;;;;4.68;100.00;102044.19;5067709;28;20020;-42
2023/04/27 00:38:26;;;;;;;9.18;5.00;;;;;;;4.61;100.00;102035.81;5049870;28;20501;-42
2023/04/27 00:40:52;;;;;;;12.52;5.68;;;;;;;4.59;100.00;102036.91;5047029;28;20406;-41
2023/04/27 00:43:17;;;;;;;10.52;5.45;;;;;;;4.58;100.00;102033.41;5036332;28;20032;-41
2023/04/27 00:45:42;;;;;;;11.68;5.25;;;;;;;4.59;100.00;102034.22;5069766;28;20082;-41
2023/04/27 00:48:09;;;;;;;8.55;5.50;;;;;;;4.54;100.00;102031.91;5061815;28;20036;-43
2023/04/27 00:50:37;;;;;;;9.27;5.90;;;;;;;4.49;100.00;102033.22;5064298;28;20383;-45
2023/04/27 00:53:04;;;;;;;10.48;5.95;;;;;;;4.44;100.00;102030.03;5040329;28;20095;-43
2023/04/27 00:55:30;;;;;;;7.40;5.03;;;;;;;4.40;100.00;102027.59;5063598;28;20151;-41
2023/04/27 00:57:55;;;;;;;9.20;6.10;;;;;;;4.33;100.00;102022.81;5068295;28;20115;-42
2023/04/27 01:00:22;;;;;;;9.60;6.22;;;;;;;4.30;100.00;102039.03;5066263;28;20040;-42
2023/04/27 01:02:48;;;;;;;17.25;6.18;;;;;;;4.27;100.00;102033.94;5040607;28;20502;-43
2023/04/27 01:05:13;;;;;;;9.48;6.22;;;;;;;4.22;100.00;102036.94;5064988;28;20035;-40
2023/04/27 01:07:39;;;;;;;8.55;5.70;;;;;;;4.17;100.00;102039.94;5068151;28;20424;-41
2023/04/27 01:10:06;;;;;;;9.98;5.90;;;;;;;4.14;100.00;102031.31;5069231;28;20044;-42
2023/04/27 01:12:31;;;;;;;12.35;5.97;;;;;;;4.09;100.00;102023.66;5063299;28;20029;-43
2023/04/27 01:14:57;;;;;;;10.10;6.25;;;;;;;4.11;100.00;102034.19;5055542;28;20134;-41
2023/04/27 01:17:23;;;;;;;9.98;6.50;;;;;;;4.09;100.00;102022.81;5069029;28;20421;-41
2023/04/27 01:19:50;;;;;;;9.50;5.88;;;;;;;4.12;100.00;102020.75;5068847;28;20039;-43
2023/04/27 01:22:16;;;;;;;10.82;6.10;;;;;;;4.13;100.00;102014.47;5068939;28;20036;-41
2023/04/27 01:24:41;;;;;;;10.00;5.97;;;;;;;4.12;100.00;102010.09;5067665;28;20028;-44
2023/04/27 01:27:06;;;;;;;11.55;6.25;;;;;;;4.10;100.00;102011.16;5067803;28;20036;-42
2023/04/27 01:29:32;;;;;;;11.63;6.47;;;;;;;4.10;100.00;102017.34;5066178;28;20017;-41
2023/04/27 01:31:57;;;;;;;8.60;6.05;;;;;;;4.07;100.00;102016.72;5050862;28;20452;-40
2023/04/27 01:34:22;;;;;;;9.65;6.25;;;;;;;4.04;100.00;102001.81;5035577;28;20177;-41
2023/04/27 01:36:48;;;;;;;11.52;5.95;;;;;;;4.00;100.00;102004.78;5066500;28;20028;-44
2023/04/27 01:39:13;;;;;;;14.98;6.68;;;;;;;3.96;100.00;102014.84;5068522;28;20029;-43
2023/04/27 01:41:39;;;;;;;9.50;6.45;;;;;;;3.96;100.00;102020.16;5065344;28;20454;-41
2023/04/27 01:44:05;;;;;;;11.95;6.22;;;;;;;3.93;100.00;102012.41;5052943;28;20032;-41
2023/04/27 01:46:31;;;;;;;13.50;7.25;;;;;;;3.91;100.00;102011.66;5067541;28;20364;-44
2023/04/27 01:48:56;;;;;;;14.38;6.32;;;;;;;3.88;100.00;102017.19;5062517;28;20033;-41
2023/04/27 01:51:21;;;;;;;10.75;6.53;;;;;;;3.87;100.00;102010.16;5064704;28;20055;-41
2023/04/27 01:53:47;;;;;;;10.10;6.00;;;;;;;3.87;100.00;102013.69;5049297;28;20033;-44
2023/04/27 01:56:12;;;;;;;12.45;6.70;;;;;;;3.85;100.00;102014.75;5055432;28;20086;-43
2023/04/27 01:58:37;;;;;;;9.40;5.85;;;;;;;3.84;100.00;102005.06;5067197;28;20050;-43
2023/04/27 02:01:03;;;;;;;10.00;6.40;;;;;;;3.86;100.00;102000.47;5065515;28;20112;-44
2023/04/27 02:03:28;;;;;;;12.90;6.00;;;;;;;3.81;100.00;102005.28;5051257;28;20112;-44
2023/04/27 02:05:54;;;;;;;14.60;7.05;;;;;;;3.78;100.00;102002.84;5066747;28;20060;-43
2023/04/27 02:08:19;;;;;;;13.23;7.40;;;;;;;3.76;100.00;101996.75;5065111;28;20040;-43
2023/04/27 02:10:44;;;;;;;12.68;6.40;;;;;;;3.77;100.00;101993.16;5041001;28;20098;-40
2023/04/27 02:13:10;;;;;;;11.02;6.93;;;;;;;3.82;100.00;101985.66;5052812;28;20094;-41
2023/04/27 02:15:35;;;;;;;12.50;6.78;;;;;;;3.82;100.00;101991.00;5045911;28;20021;-43
2023/04/27 02:18:02;;;;;;;14.73;6.72;;;;;;;3.83;100.00;101992.72;5035435;28;20080;-43
2023/04/27 02:20:32;;;;;;;15.18;6.78;;;;;;;3.84;100.00;101989.06;5050132;28;20075;-42
2023/04/27 02:22:57;;;;;;;12.38;6.45;;;;;;;3.86;100.00;101988.00;5037055;28;20489;-41
2023/04/27 02:25:23;;;;;;;11.75;7.20;;;;;;;3.85;100.00;101996.13;5049699;28;20040;-44
2023/04/27 02:27:48;;;;;;;14.73;6.82;;;;;;;3.84;100.00;101989.06;5049902;28;20390;-41
2023/04/27 02:30:14;;;;;;;15.18;6.80;;;;;;;3.85;100.00;101990.78;5048613;28;20457;-42
2023/04/27 02:32:40;;;;;;;19.90;7.30;;;;;;;3.86;100.00;101997.81;5049008;28;20109;-39
2023/04/27 02:35:06;;;;;;;12.55;7.07;;;;;;;3.85;100.00;101980.13;5050247;28;20548;-40
2023/04/27 02:37:32;;;;;;;10.93;6.88;;;;;;;3.84;100.00;101994.41;5049593;28;20386;-40
2023/04/27 02:39:58;;;;;;;11.48;6.95;;;;;;;3.88;100.00;101985.25;5049995;28;20112;-41
2023/04/27 02:42:23;;;;;;;14.43;6.53;;;;;;;3.87;100.00;101988.84;5049708;28;20121;-43
2023/04/27 02:44:49;;;;;;;19.00;6.97;;;;;;;3.89;100.00;101998.44;5049601;28;20032;-39
2023/04/27 02:47:14;;;;;;;13.38;6.75;;;;;;;3.92;100.00;101997.34;5049010;28;20036;-43
2023/04/27 02:49:40;;;;;;;11.45;6.85;;;;;;;3.89;100.00;101992.25;5055266;28;20039;-41
2023/04/27 02:52:06;;;;;;;16.58;7.60;;;;;;;3.85;100.00;102001.44;5042787;28;20048;-39
2023/04/27 02:54:31;;;;;;;13.18;6.75;;;;;;;3.82;100.00;101996.31;5065028;28;20028;-43
2023/04/27 02:56:57;;;;;;;15.68;7.85;;;;;;;3.80;100.00;101998.25;5048111;28;20032;-42
2023/04/27 02:59:22;;;;;;;17.40;7.03;;;;;;;3.77;100.00;101998.47;5056531;28;20040;-43
2023/04/27 03:01:47;;;;;;;18.20;7.72;;;;;;;3.76;100.00;102002.94;5060973;28;20488;-45
2023/04/27 03:04:13;;;;;;;10.90;7.15;;;;;;;3.76;100.00;101996.75;5051110;28;20141;-41
2023/04/27 03:06:42;;;;;;;14.70;7.13;;;;;;;3.73;100.00;101998.69;5059340;28;20028;-41
2023/04/27 03:09:09;;;;;;;12.25;7.18;;;;;;;3.72;100.00;101996.97;5071903;28;20085;-43
2023/04/27 03:11:35;;;;;;;17.75;7.65;;;;;;;3.74;100.00;101999.56;5066255;28;20116;-41
2023/04/27 03:14:00;;;;;;;15.45;7.22;;;;;;;3.72;100.00;101996.97;5071364;28;20054;-43
2023/04/27 03:16:26;;;;;;;14.60;7.65;;;;;;;3.67;100.00;101999.13;5069151;28;20044;-43
2023/04/27 03:18:51;;;;;;;17.42;7.38;;;;;;;3.62;100.00;102011.91;5063817;28;20039;-44
2023/04/27 03:21:16;;;;;;;12.75;7.47;;;;;;;3.58;100.00;102006.91;5058934;28;20032;-42
2023/04/27 03:23:42;;;;;;;14.68;7.43;;;;;;;3.55;100.00;102007.97;5068865;28;20442;-42
2023/04/27 03:26:12;;;;;;;14.85;8.18;;;;;;;3.56;100.00;102015.00;5067982;28;20047;-41
2023/04/27 03:28:38;;;;;;;15.18;8.15;;;;;;;3.56;100.00;102017.66;5070955;28;20495;-43
2023/04/27 03:31:11;;;;;;;23.17;8.18;;;;;;;3.57;100.00;102005.22;5060181;28;20382;-43
2023/04/27 03:33:37;;;;;;;15.75;8.43;;;;;;;3.56;100.00;102012.34;5069482;28;20059;-40
2023/04/27 03:36:04;;;;;;;18.70;8.00;;;;;;;3.54;100.00;102008.09;5055209;28;20082;-41
2023/04/27 03:38:30;;;;;;;16.35;8.20;;;;;;;3.52;100.00;102011.69;5041840;28;20021;-43
2023/04/27 03:40:56;;;;;;;19.20;9.38;;;;;;;3.52;100.00;102016.16;5063944;28;20066;-43
2023/04/27 03:43:21;;;;;;;17.08;7.72;;;;;;;3.50;100.00;102015.41;5070792;28;20029;-41
2023/04/27 03:45:47;;;;;;;16.95;8.57;;;;;;;3.54;100.00;102018.72;5048678;28;20041;-42
2023/04/27 03:48:13;;;;;;;18.20;9.60;;;;;;;3.52;100.00;102010.84;5053318;28;20043;-40
2023/04/27 03:50:38;;;;;;;17.85;8.60;;;;;;;3.51;100.00;102012.66;5050349;28;20029;-44
2023/04/27 03:53:04;;;;;;;20.60;8.40;;;;;;;3.51;100.00;102015.31;5050388;28;20051;-43
2023/04/27 03:55:30;;;;;;;16.23;8.93;;;;;;;3.47;100.00;102013.81;5049125;28;20029;-41
2023/04/27 03:57:56;;;;;;;19.60;8.40;;;;;;;3.45;100.00;102014.88;5050602;28;20025;-43
2023/04/27 04:00:21;;;;;;;24.40;8.80;;;;;;;3.41;100.00;102021.38;5061310;28;20047;-42
2023/04/27 04:02:48;;;;;;;17.92;9.30;;;;;;;3.39;100.00;102020.63;5050283;28;20058;-43
2023/04/27 04:05:14;;;;;;;20.27;9.00;;;;;;;3.35;100.00;102030.66;5048869;28;20437;-41
2023/04/27 04:07:42;;;;;;;16.95;8.63;;;;;;;3.36;100.00;102026.19;5049786;28;20429;-39
2023/04/27 04:10:09;;;;;;;17.13;8.73;;;;;;;3.37;100.00;102030.53;5050206;28;20036;-41
2023/04/27 04:12:34;;;;;;;20.73;8.77;;;;;;;3.36;100.00;102036.81;5050030;28;20138;-44
2023/04/27 04:14:59;;;;;;;18.45;8.18;;;;;;;3.37;100.00;102034.06;5054370;28;20111;-43
2023/04/27 04:17:25;;;;;;;21.10;9.43;;;;;;;3.35;100.00;102033.31;5053891;28;20075;-40
2023/04/27 04:19:50;;;;;;;14.80;8.40;;;;;;;3.37;100.00;102049.16;5032984;28;20063;-40
2023/04/27 04:22:16;;;;;;;19.50;9.32;;;;;;;3.36;100.00;102040.34;5051023;28;20098;-41
2023/04/27 04:24:41;;;;;;;23.45;9.45;;;;;;;3.35;100.00;102037.78;5048444;28;20029;-41
2023/04/27 04:27:07;;;;;;;21.77;9.43;;;;;;;3.35;100.00;102043.13;5060779;28;20473;-43
2023/04/27 04:29:32;;;;;;;15.73;8.52;;;;;;;3.34;100.00;102038.72;5050474;28;20464;-40
2023/04/27 04:31:58;;;;;;;19.83;9.20;;;;;;;3.35;100.00;102040.47;5051793;28;20431;-41
2023/04/27 04:34:23;;;;;;;23.42;9.52;;;;;;;3.36;100.00;102044.81;5052040;28;20099;-47
2023/04/27 04:36:51;;;;;;;20.75;8.57;;;;;;;3.38;100.00;102053.53;5066944;28;20031;-43
2023/04/27 04:39:20;;;;;;;16.55;9.07;;;;;;;3.40;100.00;102054.28;5063292;28;20032;-45
2023/04/27 04:41:46;;;;;;;21.27;10.07;;;;;;;3.42;100.00;102055.03;5065559;28;20040;-42
2023/04/27 04:44:11;;;;;;;16.98;9.55;;;;;;;3.45;100.00;102046.81;5056575;28;20027;-41
2023/04/27 04:46:37;;;;;;;18.77;8.65;;;;;;;3.48;100.00;102051.94;5061465;28;20652;-43
2023/04/27 04:49:03;;;;;;;18.13;8.82;;;;;;;3.52;100.00;102054.28;5052877;28;20162;-43
2023/04/27 04:51:28;;;;;;;20.90;8.77;;;;;;;3.61;100.00;102051.97;5059906;28;20520;-42
2023/04/27 04:53:54;;;;;;;17.35;9.25;;;;;;;3.61;100.00;102047.47;5053143;28;20127;-42
2023/04/27 04:56:20;;;;;;;19.55;8.88;;;;;;;3.65;100.00;102053.44;5060497;28;20029;-44
2023/04/27 04:58:45;;;;;;;17.35;8.52;;;;;;;3.70;100.00;102059.28;5059831;28;20036;-43
2023/04/27 05:01:11;;;;;;;22.95;9.15;;;;;;;3.73;100.00;102057.25;5060096;28;20559;-44
2023/04/27 05:03:36;;;;;;;21.70;9.85;;;;;;;3.79;100.00;102056.00;5062401;28;20025;-44
2023/04/27 05:06:02;;;;;;;16.85;8.15;;;;;;;3.79;100.00;102061.31;5054400;28;20062;-42
2023/04/27 05:08:27;;;;;;;17.45;9.13;;;;;;;3.82;100.00;102061.09;5052029;28;20194;-43
2023/04/27 05:10:53;;;;;;;19.75;9.68;;;;;;;3.82;100.00;102057.56;5056042;28;20067;-44
2023/04/27 05:13:19;;;;;;;24.20;9.38;;;;;;;3.84;100.00;102064.47;5063199;28;20028;-44
2023/04/27 05:15:45;;;;;;;20.23;9.43;;;;;;;3.90;100.00;102063.22;5056783;28;20090;-40
2023/04/27 05:18:10;;;;;;;16.23;8.50;;;;;;;3.98;100.00;102066.19;5068667;28;20462;-45
2023/04/27 05:20:36;;;;;;;19.45;9.02;;;;;;;4.11;100.00;102071.50;5051934;28;20033;-43
2023/04/27 05:23:02;;;;;;;16.65;8.30;;;;;;;4.23;100.00;102075.09;5048834;28;20045;-42
2023/04/27 05:25:40;;;;;;;17.00;9.18;;;;;;;4.31;100.00;102070.06;5059916;28;20062;-42
2023/04/27 05:28:06;;;;;;;18.92;9.90;;;;;;;4.42;100.00;102064.78;5068186;28;20033;-44
2023/04/27 05:30:31;;;;;;;18.33;8.35;;;;;;;4.39;100.00;102062.34;5064663;28;20102;-41
2023/04/27 05:32:57;;;;;;;22.27;8.65;;;;;;;4.44;100.00;102052.19;5068913;28;20056;-42
2023/04/27 05:35:22;;;;;;;24.45;8.85;;;;;;;4.48;100.00;102048.38;5062734;28;20090;-43
2023/04/27 05:37:47;;;;;;;16.65;8.43;;;;;;;4.55;100.00;102054.91;5062575;28;20058;-40
2023/04/27 05:40:14;;;;;;;16.08;8.40;;;;;;;4.64;100.00;102049.91;5064511;28;20117;-42
2023/04/27 05:42:39;;;;;;;16.38;8.73;;;;;;;4.68;100.00;102051.34;5046107;28;20048;-43
2023/04/27 05:45:05;;;;;;;21.35;8.20;;;;;;;4.81;100.00;102044.16;5068309;28;20493;-41
2023/04/27 05:47:31;;;;;;;16.48;8.52;;;;;;;5.32;100.00;102050.97;5064577;28;20032;-44
2023/04/27 05:49:56;;;;;;;18.20;7.57;;;;;;;5.71;100.00;102053.25;5063402;28;20114;-43
2023/04/27 05:52:28;;;;;;;20.00;8.52;;;;;;;6.13;100.00;102056.19;5054352;28;20068;-41
2023/04/27 05:54:53;;;;;;;14.45;6.80;;;;;;;6.98;100.00;102046.56;5048131;28;20139;-41
2023/04/27 05:57:19;;;;;;;17.58;7.10;;;;;;;7.46;100.00;102051.41;5045274;28;20116;-43
2023/04/27 05:59:44;;;;;;;13.73;7.78;;;;;;;8.34;100.00;102052.59;5044102;28;20478;-42
2023/04/27 06:02:10;;;;;;;18.45;7.93;;;;;;;8.83;100.00;102058.94;5055428;28;20036;-41
2023/04/27 06:04:36;;;;;;;13.98;7.45;;;;;;;9.29;100.00;102051.13;5055871;28;20494;-42
2023/04/27 06:07:04;;;;;;;16.85;7.75;;;;;;;10.03;100.00;102045.81;5051479;28;20140;-42
2023/04/27 06:09:30;;;;;;;14.65;7.28;;;;;;;10.35;100.00;102052.63;5063170;28;20036;-42
2023/04/27 06:11:57;;;;;;;14.00;6.65;;;;;;;10.39;98.59;102058.53;5055310;28;20709;-42
2023/04/27 06:14:23;;;;;;;13.73;7.07;;;;;;;10.54;95.63;102051.63;5065090;28;20074;-41
2023/04/27 06:16:48;;;;;;;11.45;7.28;;;;;;;11.14;91.73;102048.31;5059448;28;20037;-42
2023/04/27 06:19:13;;;;;;;15.65;7.18;;;;;;;11.02;91.11;102054.94;5043277;28;20036;-39
2023/04/27 06:21:39;;;;;;;13.73;6.40;;;;;;;12.14;89.39;102055.03;5063405;28;20120;-42
2023/04/27 06:24:05;;;;;;;17.15;7.15;;;;;;;12.64;82.87;102053.31;5063370;28;20539;-42
2023/04/27 06:26:30;;;;;;;13.98;7.18;;;;;;;12.80;78.54;102042.53;5055249;28;20037;-40
2023/04/27 06:28:56;;;;;;;17.15;6.50;;;;;;;12.64;78.23;102040.66;5065701;28;20040;-40
2023/04/27 06:31:21;;;;;;;16.10;5.80;;;;;;;12.73;78.17;102045.03;5052897;28;20387;-42
2023/04/27 06:33:46;;;;;;;14.57;5.93;;;;;;;12.59;74.37;102044.88;5050219;28;20035;-41
2023/04/27 06:36:12;;;;;;;12.85;6.60;;;;;;;11.57;79.44;102033.97;5037051;28;21238;-40
2023/04/27 06:38:37;;;;;;;15.27;6.00;;;;;;;11.40;81.43;102034.84;5054979;28;20512;-41
2023/04/27 06:41:03;;;;;;;15.13;6.35;;;;;;;12.11;82.53;102035.59;5069813;28;20101;-44
2023/04/27 06:43:29;;;;;;;17.80;6.15;;;;;;;12.87;77.17;102046.25;5060964;28;20033;-42
2023/04/27 06:45:54;;;;;;;9.77;5.40;;;;;;;13.27;73.96;102055.41;5061848;28;20032;-42
2023/04/27 06:48:20;;;;;;;14.40;5.78;;;;;;;13.58;72.48;102049.28;5058848;28;20195;-42
2023/04/27 06:50:45;;;;;;;17.52;5.70;;;;;;;13.11;72.78;102050.84;5052246;28;20138;-42
2023/04/27 06:53:11;;;;;;;11.75;5.45;;;;;;;13.34;72.19;102047.47;5060397;28;20036;-43
2023/04/27 06:55:36;;;;;;;15.80;5.22;;;;;;;14.32;67.78;102049.00;5062249;28;20033;-44
2023/04/27 06:58:02;;;;;;;11.98;4.93;;;;;;;13.67;68.72;102053.66;5069634;28;20036;-42
2023/04/27 07:00:27;;;;;;;10.75;4.82;;;;;;;13.19;68.08;102041.84;5053301;28;20120;-40
2023/04/27 07:02:53;;;;;;;13.35;5.03;;;;;;;13.28;68.65;102040.88;5050904;28;20029;-44
2023/04/27 07:05:18;;;;;;;10.05;4.70;;;;;;;13.03;68.45;102047.25;5050000;28;20060;-40
2023/04/27 07:07:44;;;;;;;14.02;5.18;;;;;;;12.29;72.24;102049.84;5053483;28;20037;-42
2023/04/27 07:10:09;;;;;;;8.70;4.40;;;;;;;12.44;73.35;102041.97;5062003;28;20106;-40
2023/04/27 07:12:36;;;;;;;7.35;4.63;;;;;;;12.70;71.56;102048.09;5051774;28;20033;-44
2023/04/27 07:15:03;;;;;;;10.07;4.38;;;;;;;12.33;69.79;102051.22;5052272;28;20017;-43
2023/04/27 07:17:28;;;;;;;9.60;4.38;;;;;;;11.51;72.22;102042.69;5070316;28;20119;-42
2023/04/27 07:19:54;;;;;;;7.43;4.10;;;;;;;12.56;69.81;102039.78;5064772;28;20108;-47
2023/04/27 07:22:20;;;;;;;8.65;3.90;;;;;;;12.38;69.55;102035.38;5057366;28;20023;-43
2023/04/27 07:24:45;;;;;;;6.35;3.75;;;;;;;11.82;69.40;102036.78;5071520;28;20021;-42
2023/04/27 07:27:12;;;;;;;10.25;3.90;;;;;;;12.00;67.09;102048.38;5071648;28;20101;-41
2023/04/27 07:29:37;;;;;;;8.65;3.53;;;;;;;11.49;67.84;102042.00;5055199;28;20111;-44
2023/04/27 07:32:07;;;;;;;10.32;3.45;;;;;;;11.34;68.88;102047.13;5071570;28;20146;-44
2023/04/27 07:34:33;;;;;;;7.93;3.50;;;;;;;11.43;70.13;102048.03;5054507;28;20048;-40
2023/04/27 07:36:58;;;;;;;9.82;3.25;;;;;;;11.14;70.23;102043.78;5070865;28;20032;-43
2023/04/27 07:39:25;;;;;;;7.72;3.10;;;;;;;10.98;71.37;102043.66;5073030;28;20077;-44
2023/04/27 07:41:50;;;;;;;7.78;3.33;;;;;;;11.37;70.24;102033.34;5071563;28;20541;-42
2023/04/27 07:44:18;;;;;;;5.22;3.03;;;;;;;11.31;70.27;102033.94;5073281;28;20024;-42
2023/04/27 07:46:46;;;;;;;7.60;3.22;;;;;;;11.38;70.60;102034.19;5054504;28;20096;-43
2023/04/27 07:49:12;;;;;;;10.57;3.22;;;;;;;10.72;70.55;102039.03;5072776;28;20398;-41
2023/04/27 07:51:38;;;;;;;6.68;3.17;;;;;;;10.94;71.58;102031.47;5070159;28;20123;-42
2023/04/27 07:54:04;;;;;;;10.15;3.10;;;;;;;11.14;71.46;102032.16;5055631;28;20028;-42
2023/04/27 07:56:29;;;;;;;9.05;3.10;;;;;;;11.27;71.13;102042.50;5050682;28;20424;-43
2023/04/27 07:58:55;;;;;;;9.20;2.95;;;;;;;11.37;69.85;102037.88;5046296;28;20024;-45
2023/04/27 08:01:20;;;;;;;10.32;3.47;;;;;;;11.29;70.00;102037.81;5064009;28;20021;-41
2023/04/27 08:03:46;;;;;;;9.52;3.33;;;;;;;11.46;71.19;102036.94;5035345;28;20029;-41
2023/04/27 08:06:11;;;;;;;8.90;3.28;;;;;;;11.97;69.63;102024.41;5034550;28;20074;-42
2023/04/27 08:08:36;;;;;;;11.65;3.50;;;;;;;11.81;68.86;102024.31;5051981;28;20156;-42
2023/04/27 08:11:02;;;;;;;8.27;2.92;;;;;;;12.63;66.12;102020.03;5050459;28;20032;-42
2023/04/27 08:13:28;;;;;;;5.65;2.67;;;;;;;13.00;64.57;102020.59;5051892;28;20103;-44
2023/04/27 08:15:57;;;;;;;6.70;2.60;;;;;;;12.28;65.27;102021.16;5050459;28;20056;-44
2023/04/27 08:18:23;;;;;;;13.38;3.45;;;;;;;12.65;63.72;102022.59;5052065;28;20026;-40
2023/04/27 08:20:49;;;;;;;7.63;3.05;;;;;;;13.11;64.72;102022.94;5051795;28;20025;-40
2023/04/27 08:23:14;;;;;;;7.80;3.35;;;;;;;12.42;63.90;102017.81;5033480;28;20041;-42
2023/04/27 08:25:40;;;;;;;7.80;3.35;;;;;;;12.17;66.08;102021.47;5050475;28;20052;-40
2023/04/27 08:28:06;;;;;;;6.88;2.42;;;;;;;12.72;62.86;102023.63;5051380;28;20530;-40
2023/04/27 08:30:32;;;;;;;7.53;2.60;;;;;;;13.16;59.97;102032.25;5050068;28;20032;-42
2023/04/27 08:32:58;;;;;;;4.63;2.42;;;;;;;12.85;60.38;102023.09;5051091;28;20024;-41
2023/04/27 08:35:24;;;;;;;8.75;2.88;;;;;;;13.20;59.54;102031.91;5051372;28;20036;-42
2023/04/27 08:37:49;;;;;;;8.73;2.63;;;;;;;12.94;59.40;102028.34;5051095;28;20063;-44
2023/04/27 08:40:15;;;;;;;6.53;2.33;;;;;;;12.86;59.50;102024.81;5049647;28;20027;-43
2023/04/27 08:42:53;;;;;;;7.18;2.47;;;;;;;12.90;60.29;102023.44;5049630;28;20414;-42
2023/04/27 08:45:19;;;;;;;9.60;2.60;;;;;;;12.44;60.66;102009.56;5050089;28;20056;-43
2023/04/27 08:47:45;;;;;;;7.82;2.70;;;;;;;13.31;59.90;102008.09;5033141;28;20079;-40
2023/04/27 08:50:11;;;;;;;3.38;2.13;;;;;;;13.00;58.88;102010.63;5051522;28;20360;-43
2023/04/27 08:52:37;;;;;;;6.22;2.55;;;;;;;13.29;58.35;102012.81;5050573;28;20055;-42
2023/04/27 08:55:03;;;;;;;7.82;2.38;;;;;;;13.04;57.32;102006.56;5049661;28;20029;-42
2023/04/27 08:57:29;;;;;;;7.43;2.20;;;;;;;13.76;56.61;102014.72;5050694;28;20147;-41
2023/04/27 08:59:59;;;;;;;9.25;2.42;;;;;;;14.33;54.76;102007.38;5049285;28;20045;-44
2023/04/27 09:02:28;;;;;;;4.38;2.05;;;;;;;14.12;52.28;102008.84;5049975;28;20021;-39
2023/04/27 09:04:53;;;;;;;7.15;2.35;;;;;;;14.61;51.96;102007.72;5050359;28;20041;-41
2023/04/27 09:07:19;;;;;;;9.98;2.45;;;;;;;14.74;51.84;102007.13;5049047;28;20059;-42
2023/04/27 09:09:45;;;;;;;3.83;2.35;;;;;;;14.77;52.76;102002.22;5050507;28;20017;-43
2023/04/27 09:12:20;;;;;;;6.00;2.30;;;;;;;15.06;50.35;102001.47;5048969;28;20025;-42
2023/04/27 09:14:56;;;;;;;7.07;2.33;;;;;;;15.06;49.67;102001.47;5049228;28;20115;-42
2023/04/27 09:17:29;;;;;;;4.15;2.10;;;;;;;14.75;49.58;101998.00;5050117;28;20056;-41
2023/04/27 09:20:14;;;;;;;3.92;2.20;;;;;;;15.37;48.64;102001.31;5049172;28;20471;-42
2023/04/27 09:22:46;;;;;;;6.68;2.75;;;;;;;16.15;47.78;102004.50;5049108;28;20490;-42
2023/04/27 09:25:30;;;;;;;4.60;2.40;;;;;;;16.05;47.69;102008.53;5032452;28;20021;-43
2023/04/27 09:27:56;;;;;;;7.07;2.42;;;;;;;16.16;46.73;102008.88;5049257;28;20467;-43
2023/04/27 09:30:22;;;;;;;5.93;2.30;;;;;;;15.31;47.34;102006.63;5050680;28;20358;-43
2023/04/27 09:32:56;;;;;;;6.65;2.38;;;;;;;15.29;47.98;102008.69;5048970;28;20024;-44
2023/04/27 09:35:23;;;;;;;3.55;2.50;;;;;;;15.69;46.10;102014.72;5049174;28;20505;-40
2023/04/27 09:37:51;;;;;;;5.25;2.40;;;;;;;15.69;47.08;102017.44;5032468;28;20355;-42
2023/04/27 09:40:17;;;;;;;;;;;;;;;15.50;46.12;102016.09;5050756;28;20021;-40
2023/04/27 09:42:46;;;;;;;3.55;1.85;;;;;;;15.74;45.23;102006.88;5050196;28;19909;-41
2023/04/27 09:45:12;;;;;;;4.88;2.13;;;;;;;16.03;45.03;102006.00;5050220;28;20031;-45
2023/04/27 09:47:37;;;;;;;6.30;2.78;;;;;;;16.97;44.28;102016.88;5032183;28;20025;-44
2023/04/27 09:50:04;;;;;;;5.05;2.58;;;;;;;17.18;42.82;102005.13;5050221;28;20082;-41
2023/04/27 09:52:29;;;;;;;5.07;2.50;;;;;;;18.57;42.35;101996.81;5049954;28;20045;-41
2023/04/27 09:55:01;;;;;;;6.22;2.80;;;;;;;17.62;42.45;102003.13;5049994;28;20475;-45
2023/04/27 09:57:38;;;;;;;7.07;2.65;;;;;;;17.00;43.09;102007.47;5048985;28;20036;-46
2023/04/27 10:00:18;;;;;;;5.33;2.60;;;;;;;17.25;42.27;102003.31;5032420;28;20033;-42
2023/04/27 10:03:21;;;;;;;6.32;3.13;;;;;;;17.73;40.68;102008.00;5050043;28;20021;-41
2023/04/27 10:06:07;;;;;;;7.70;2.60;;;;;;;17.95;39.16;102011.50;5065103;28;20156;-42
2023/04/27 10:08:35;;;;;;;6.32;2.85;;;;;;;17.32;41.54;102006.91;5031741;28;20025;-42
2023/04/27 10:11:12;;;;;;;7.38;3.15;;;;;;;16.21;40.02;102005.59;5049745;28;20648;-43
2023/04/27 10:13:37;;;;;;;3.67;2.93;;;;;;;17.24;39.77;102003.50;5048445;28;20565;-41
2023/04/27 10:16:17;;;;;;;7.53;3.17;;;;;;;16.51;40.58;101997.34;5051840;28;20128;-43
2023/04/27 10:18:54;;;;;;;5.18;3.20;;;;;;;15.82;42.63;102004.06;5053899;28;20044;-45
2023/04/27 10:21:20;;;;;;;12.10;3.08;;;;;;;16.71;44.00;102001.13;5052397;28;20059;-42
2023/04/27 10:23:50;;;;;;;8.00;3.25;;;;;;;16.89;42.54;102006.97;5053200;28;20025;-40
2023/04/27 10:26:23;;;;;;;8.73;3.20;;;;;;;16.12;44.14;101994.00;5052886;28;20123;-41
2023/04/27 10:29:04;;;;;;;8.30;3.20;;;;;;;17.30;41.54;102002.72;5053995;28;20060;-40
2023/04/27 10:31:30;;;;;;;6.60;2.97;;;;;;;17.65;39.41;102009.00;5053916;28;20032;-45
2023/04/27 10:34:09;;;;;;;6.85;3.05;;;;;;;17.89;39.40;101996.81;5052168;28;20505;-47
2023/04/27 10:36:40;;;;;;;6.53;3.63;;;;;;;17.98;40.47;101995.59;5053388;28;20044;-40
2023/04/27 10:39:21;;;;;;;9.88;3.72;;;;;;;18.86;39.73;101987.44;5051965;28;20509;-44
2023/04/27 10:41:52;;;;;;;5.75;3.10;;;;;;;19.16;38.04;101991.63;5052245;28;20025;-42
2023/04/27 10:44:28;;;;;;;4.82;3.22;;;;;;;19.51;36.92;101990.34;5051874;28;20029;-42
2023/04/27 10:46:55;;;;;;;6.10;3.50;;;;;;;19.46;37.50;101992.03;5053424;28;20525;-44
2023/04/27 10:49:21;;;;;;;7.83;2.93;;;;;;;19.00;38.22;101992.91;5051556;28;20047;-42
2023/04/27 10:51:49;;;;;;;6.30;3.17;;;;;;;19.06;34.59;101976.53;5053081;28;20095;-43
2023/04/27 10:54:14;;;;;;;5.75;3.13;;;;;;;18.35;37.82;101984.38;5053152;28;20057;-39
2023/04/27 10:56:40;;;;;;;6.75;3.25;;;;;;;17.94;37.80;101979.88;5053364;28;20470;-45
2023/04/27 10:59:07;;;;;;;5.30;3.10;;;;;;;18.15;37.75;101989.78;5052034;28;20037;-44
2023/04/27 11:01:33;;;;;;;6.15;3.60;;;;;;;17.63;37.50;101977.56;5051647;28;20538;-42
2023/04/27 11:03:59;;;;;;;7.25;3.30;;;;;;;18.43;36.75;101965.97;5052691;28;20087;-44
2023/04/27 11:06:27;;;;;;;11.27;3.95;;;;;;;18.37;37.44;101966.78;5053014;28;20120;-41
2023/04/27 11:08:53;;;;;;;6.20;3.28;;;;;;;18.88;38.58;101968.16;5051725;28;20036;-45
2023/04/27 11:11:19;;;;;;;5.22;3.35;;;;;;;18.76;37.42;101958.91;5052619;28;20083;-43
2023/04/27 11:13:48;;;;;;;5.57;3.27;;;;;;;18.23;35.56;101967.81;5051766;28;20432;-42
2023/04/27 11:16:14;;;;;;;6.32;3.22;;;;;;;18.53;36.61;101964.72;5052525;28;20382;-44
2023/04/27 11:18:40;;;;;;;4.25;3.25;;;;;;;18.37;35.10;101961.34;5052700;28;20457;-43
2023/04/27 11:21:14;;;;;;;6.82;4.00;;;;;;;18.34;35.95;101952.75;5052640;28;20037;-41